Reese River, Nevada
Current Conditions -  °F | °C
As of 8:53 PM on Thursday 30 Oct 2014 (Local Time) from KLOL Reporting Station
Haze Haze  
Wind Chill: 51°   Ceiling: Unl
Heat Index: 51°   Visibility: 3mi
Dew Point: 25°   Wind: 0mph
Humidity: 36%   Direction: NA
Pressure: 29.92"   Gusts: NA
Location:  39.7407°N, 117.085°W
Report Text: KLOL 310353Z AUTO 00000KT 3SM HZ CLR 11/M04 A2992 RMK AO2 SLP129 T01061039
Loading
Personal Weather Stations






























Interactive Weather Map
Tropical Storm Tracking
New forecast layout! Learn more

10-Day Weather Forecast

Advertisements
Track Severe Weather on mobile